sensor_id;sensor_type;location;lat;lon;timestamp;P1;durP1;ratioP1;P2;durP2;ratioP2
14722;SDS011;7452;55.594;12.986;2022-11-06T00:00:38;15.83;;;10.67;;
14722;SDS011;7452;55.594;12.986;2022-11-06T00:03:05;17.80;;;10.80;;
14722;SDS011;7452;55.594;12.986;2022-11-06T00:05:32;14.03;;;10.03;;
14722;SDS011;7452;55.594;12.986;2022-11-06T00:08:24;18.40;;;11.13;;
14722;SDS011;7452;55.594;12.986;2022-11-06T00:10:53;15.43;;;11.20;;
14722;SDS011;7452;55.594;12.986;2022-11-06T00:13:26;14.67;;;10.33;;
14722;SDS011;7452;55.594;12.986;2022-11-06T00:15:54;13.60;;;10.27;;
14722;SDS011;7452;55.594;12.986;2022-11-06T00:18:24;14.83;;;10.37;;
14722;SDS011;7452;55.594;12.986;2022-11-06T00:20:53;15.33;;;10.00;;
14722;SDS011;7452;55.594;12.986;2022-11-06T00:23:21;15.27;;;10.30;;
14722;SDS011;7452;55.594;12.986;2022-11-06T00:25:49;15.47;;;9.70;;
14722;SDS011;7452;55.594;12.986;2022-11-06T00:28:20;13.63;;;9.83;;
14722;SDS011;7452;55.594;12.986;2022-11-06T00:30:49;15.50;;;10.87;;
14722;SDS011;7452;55.594;12.986;2022-11-06T00:33:16;12.83;;;10.47;;
14722;SDS011;7452;55.594;12.986;2022-11-06T00:35:43;14.13;;;10.23;;
14722;SDS011;7452;55.594;12.986;2022-11-06T00:38:10;14.43;;;9.77;;
14722;SDS011;7452;55.594;12.986;2022-11-06T00:40:38;13.40;;;9.90;;
14722;SDS011;7452;55.594;12.986;2022-11-06T00:43:06;13.63;;;10.37;;
14722;SDS011;7452;55.594;12.986;2022-11-06T00:45:33;13.03;;;10.07;;
14722;SDS011;7452;55.594;12.986;2022-11-06T00:48:04;15.37;;;10.23;;
14722;SDS011;7452;55.594;12.986;2022-11-06T00:50:32;12.60;;;9.00;;
14722;SDS011;7452;55.594;12.986;2022-11-06T00:52:59;14.67;;;9.33;;
14722;SDS011;7452;55.594;12.986;2022-11-06T00:55:26;15.77;;;9.13;;
14722;SDS011;7452;55.594;12.986;2022-11-06T00:57:54;13.17;;;9.13;;
14722;SDS011;7452;55.594;12.986;2022-11-06T01:00:21;16.83;;;9.03;;
14722;SDS011;7452;55.594;12.986;2022-11-06T01:02:48;13.90;;;9.03;;
14722;SDS011;7452;55.594;12.986;2022-11-06T01:05:18;13.83;;;8.53;;
14722;SDS011;7452;55.594;12.986;2022-11-06T01:07:45;11.67;;;8.10;;
14722;SDS011;7452;55.594;12.986;2022-11-06T01:10:12;12.00;;;8.00;;
14722;SDS011;7452;55.594;12.986;2022-11-06T01:12:39;14.23;;;8.50;;
14722;SDS011;7452;55.594;12.986;2022-11-06T01:15:07;11.30;;;6.63;;
14722;SDS011;7452;55.594;12.986;2022-11-06T01:17:36;10.40;;;7.20;;
14722;SDS011;7452;55.594;12.986;2022-11-06T01:20:04;10.10;;;7.10;;
14722;SDS011;7452;55.594;12.986;2022-11-06T01:22:33;9.60;;;6.80;;
14722;SDS011;7452;55.594;12.986;2022-11-06T01:25:01;13.03;;;6.30;;
14722;SDS011;7452;55.594;12.986;2022-11-06T01:27:29;10.70;;;7.17;;
14722;SDS011;7452;55.594;12.986;2022-11-06T01:29:56;12.47;;;7.00;;
14722;SDS011;7452;55.594;12.986;2022-11-06T01:32:24;10.37;;;7.00;;
14722;SDS011;7452;55.594;12.986;2022-11-06T01:34:52;11.90;;;6.90;;
14722;SDS011;7452;55.594;12.986;2022-11-06T01:37:22;10.97;;;6.87;;
14722;SDS011;7452;55.594;12.986;2022-11-06T01:39:51;9.60;;;6.43;;
14722;SDS011;7452;55.594;12.986;2022-11-06T01:42:18;12.23;;;6.80;;
14722;SDS011;7452;55.594;12.986;2022-11-06T01:47:49;14.07;;;7.63;;
14722;SDS011;7452;55.594;12.986;2022-11-06T01:50:17;12.47;;;7.03;;
14722;SDS011;7452;55.594;12.986;2022-11-06T01:52:45;10.23;;;7.20;;
14722;SDS011;7452;55.594;12.986;2022-11-06T01:55:19;12.20;;;7.17;;
14722;SDS011;7452;55.594;12.986;2022-11-06T01:57:49;14.67;;;7.80;;
14722;SDS011;7452;55.594;12.986;2022-11-06T02:00:17;10.20;;;6.73;;
14722;SDS011;7452;55.594;12.986;2022-11-06T02:02:45;12.10;;;7.40;;
14722;SDS011;7452;55.594;12.986;2022-11-06T02:05:14;10.77;;;7.67;;
14722;SDS011;7452;55.594;12.986;2022-11-06T02:07:42;14.57;;;8.13;;
14722;SDS011;7452;55.594;12.986;2022-11-06T02:10:10;13.53;;;7.80;;
14722;SDS011;7452;55.594;12.986;2022-11-06T02:15:50;12.00;;;7.90;;
14722;SDS011;7452;55.594;12.986;2022-11-06T02:18:28;11.90;;;7.30;;
14722;SDS011;7452;55.594;12.986;2022-11-06T02:21:25;13.23;;;7.67;;
14722;SDS011;7452;55.594;12.986;2022-11-06T02:27:20;9.50;;;7.37;;
14722;SDS011;7452;55.594;12.986;2022-11-06T02:29:49;9.20;;;6.60;;
14722;SDS011;7452;55.594;12.986;2022-11-06T02:32:23;10.87;;;7.37;;
14722;SDS011;7452;55.594;12.986;2022-11-06T02:34:54;8.87;;;7.00;;
14722;SDS011;7452;55.594;12.986;2022-11-06T02:37:26;10.30;;;7.00;;
14722;SDS011;7452;55.594;12.986;2022-11-06T02:39:59;11.57;;;6.43;;
14722;SDS011;7452;55.594;12.986;2022-11-06T02:42:32;11.80;;;7.67;;
14722;SDS011;7452;55.594;12.986;2022-11-06T02:45:03;13.90;;;7.10;;
14722;SDS011;7452;55.594;12.986;2022-11-06T02:47:35;11.40;;;7.07;;
14722;SDS011;7452;55.594;12.986;2022-11-06T02:50:05;14.13;;;7.17;;
14722;SDS011;7452;55.594;12.986;2022-11-06T02:52:36;13.10;;;7.23;;
14722;SDS011;7452;55.594;12.986;2022-11-06T02:55:07;9.90;;;6.83;;
14722;SDS011;7452;55.594;12.986;2022-11-06T02:57:40;9.20;;;6.73;;
14722;SDS011;7452;55.594;12.986;2022-11-06T03:00:12;11.87;;;7.77;;
14722;SDS011;7452;55.594;12.986;2022-11-06T03:02:42;13.40;;;7.83;;
14722;SDS011;7452;55.594;12.986;2022-11-06T03:05:16;13.47;;;7.60;;
14722;SDS011;7452;55.594;12.986;2022-11-06T03:07:50;13.73;;;7.93;;
14722;SDS011;7452;55.594;12.986;2022-11-06T03:10:20;18.63;;;8.10;;
14722;SDS011;7452;55.594;12.986;2022-11-06T03:12:55;14.53;;;8.23;;
14722;SDS011;7452;55.594;12.986;2022-11-06T03:15:30;13.27;;;8.93;;
14722;SDS011;7452;55.594;12.986;2022-11-06T03:18:01;14.03;;;8.73;;
14722;SDS011;7452;55.594;12.986;2022-11-06T03:20:35;13.60;;;8.07;;
14722;SDS011;7452;55.594;12.986;2022-11-06T03:23:08;13.33;;;8.23;;
14722;SDS011;7452;55.594;12.986;2022-11-06T03:25:41;13.57;;;8.80;;
14722;SDS011;7452;55.594;12.986;2022-11-06T03:28:14;15.73;;;8.80;;
14722;SDS011;7452;55.594;12.986;2022-11-06T03:30:49;17.50;;;8.87;;
14722;SDS011;7452;55.594;12.986;2022-11-06T03:33:21;14.53;;;8.40;;
14722;SDS011;7452;55.594;12.986;2022-11-06T03:35:56;12.03;;;8.00;;
14722;SDS011;7452;55.594;12.986;2022-11-06T03:38:29;15.07;;;8.90;;
14722;SDS011;7452;55.594;12.986;2022-11-06T03:40:59;16.00;;;8.30;;
14722;SDS011;7452;55.594;12.986;2022-11-06T03:43:35;11.30;;;7.60;;
14722;SDS011;7452;55.594;12.986;2022-11-06T03:46:06;9.97;;;7.50;;
14722;SDS011;7452;55.594;12.986;2022-11-06T03:48:39;12.23;;;7.57;;
14722;SDS011;7452;55.594;12.986;2022-11-06T03:51:11;14.23;;;8.03;;
14722;SDS011;7452;55.594;12.986;2022-11-06T03:53:43;12.37;;;6.83;;
14722;SDS011;7452;55.594;12.986;2022-11-06T03:56:16;15.23;;;7.10;;
14722;SDS011;7452;55.594;12.986;2022-11-06T03:58:48;11.87;;;7.37;;
14722;SDS011;7452;55.594;12.986;2022-11-06T04:01:17;14.87;;;6.57;;
14722;SDS011;7452;55.594;12.986;2022-11-06T04:03:50;10.77;;;6.97;;
14722;SDS011;7452;55.594;12.986;2022-11-06T04:06:22;19.30;;;6.70;;
14722;SDS011;7452;55.594;12.986;2022-11-06T04:08:51;9.20;;;6.23;;
14722;SDS011;7452;55.594;12.986;2022-11-06T04:11:43;14.53;;;7.00;;
14722;SDS011;7452;55.594;12.986;2022-11-06T04:14:31;13.70;;;6.37;;
14722;SDS011;7452;55.594;12.986;2022-11-06T04:17:01;10.30;;;6.63;;
14722;SDS011;7452;55.594;12.986;2022-11-06T04:19:31;15.27;;;6.47;;
14722;SDS011;7452;55.594;12.986;2022-11-06T04:22:08;13.03;;;6.87;;
14722;SDS011;7452;55.594;12.986;2022-11-06T04:24:50;13.40;;;6.73;;
14722;SDS011;7452;55.594;12.986;2022-11-06T04:27:46;15.80;;;7.80;;
14722;SDS011;7452;55.594;12.986;2022-11-06T04:30:25;11.73;;;6.67;;
14722;SDS011;7452;55.594;12.986;2022-11-06T04:32:59;11.83;;;6.83;;
14722;SDS011;7452;55.594;12.986;2022-11-06T04:35:35;13.67;;;7.20;;
14722;SDS011;7452;55.594;12.986;2022-11-06T04:38:11;10.77;;;7.17;;
14722;SDS011;7452;55.594;12.986;2022-11-06T04:40:47;14.33;;;7.47;;
14722;SDS011;7452;55.594;12.986;2022-11-06T04:43:20;8.67;;;6.43;;
14722;SDS011;7452;55.594;12.986;2022-11-06T04:45:54;10.77;;;7.10;;
14722;SDS011;7452;55.594;12.986;2022-11-06T04:48:22;12.77;;;6.90;;
14722;SDS011;7452;55.594;12.986;2022-11-06T04:50:51;9.60;;;5.77;;
14722;SDS011;7452;55.594;12.986;2022-11-06T04:53:20;7.83;;;5.60;;
14722;SDS011;7452;55.594;12.986;2022-11-06T04:55:50;8.97;;;5.80;;
14722;SDS011;7452;55.594;12.986;2022-11-06T04:58:20;12.33;;;5.63;;
14722;SDS011;7452;55.594;12.986;2022-11-06T05:00:47;14.40;;;6.47;;
14722;SDS011;7452;55.594;12.986;2022-11-06T05:03:17;9.43;;;5.73;;
14722;SDS011;7452;55.594;12.986;2022-11-06T05:05:45;11.07;;;5.93;;
14722;SDS011;7452;55.594;12.986;2022-11-06T05:08:12;9.57;;;6.53;;
14722;SDS011;7452;55.594;12.986;2022-11-06T05:10:40;11.97;;;6.30;;
14722;SDS011;7452;55.594;12.986;2022-11-06T05:13:10;11.73;;;6.43;;
14722;SDS011;7452;55.594;12.986;2022-11-06T05:15:41;10.80;;;7.03;;
14722;SDS011;7452;55.594;12.986;2022-11-06T05:18:08;13.10;;;6.60;;
14722;SDS011;7452;55.594;12.986;2022-11-06T05:20:37;11.80;;;6.70;;
14722;SDS011;7452;55.594;12.986;2022-11-06T05:23:04;12.60;;;7.03;;
14722;SDS011;7452;55.594;12.986;2022-11-06T05:25:31;12.53;;;6.73;;
14722;SDS011;7452;55.594;12.986;2022-11-06T05:28:00;12.50;;;7.33;;
14722;SDS011;7452;55.594;12.986;2022-11-06T05:30:29;11.97;;;7.37;;
14722;SDS011;7452;55.594;12.986;2022-11-06T05:32:57;9.33;;;7.13;;
14722;SDS011;7452;55.594;12.986;2022-11-06T05:35:24;12.73;;;7.83;;
14722;SDS011;7452;55.594;12.986;2022-11-06T05:37:58;11.67;;;7.50;;
14722;SDS011;7452;55.594;12.986;2022-11-06T05:40:26;13.37;;;7.57;;
14722;SDS011;7452;55.594;12.986;2022-11-06T05:42:54;10.50;;;6.73;;
14722;SDS011;7452;55.594;12.986;2022-11-06T05:45:21;13.40;;;7.70;;
14722;SDS011;7452;55.594;12.986;2022-11-06T05:47:49;12.90;;;6.47;;
14722;SDS011;7452;55.594;12.986;2022-11-06T05:50:16;14.77;;;6.70;;
14722;SDS011;7452;55.594;12.986;2022-11-06T05:52:44;11.43;;;6.70;;
14722;SDS011;7452;55.594;12.986;2022-11-06T05:55:12;11.17;;;6.43;;
14722;SDS011;7452;55.594;12.986;2022-11-06T05:57:39;8.60;;;6.33;;
14722;SDS011;7452;55.594;12.986;2022-11-06T06:00:08;12.13;;;6.37;;
14722;SDS011;7452;55.594;12.986;2022-11-06T06:02:38;9.90;;;6.00;;
14722;SDS011;7452;55.594;12.986;2022-11-06T06:05:06;11.30;;;5.97;;
14722;SDS011;7452;55.594;12.986;2022-11-06T06:07:34;11.87;;;6.00;;
14722;SDS011;7452;55.594;12.986;2022-11-06T06:10:02;11.70;;;5.67;;
14722;SDS011;7452;55.594;12.986;2022-11-06T06:12:31;8.00;;;5.30;;
14722;SDS011;7452;55.594;12.986;2022-11-06T06:15:02;9.13;;;5.60;;
14722;SDS011;7452;55.594;12.986;2022-11-06T06:17:30;10.57;;;5.33;;
14722;SDS011;7452;55.594;12.986;2022-11-06T06:19:58;9.33;;;5.73;;
14722;SDS011;7452;55.594;12.986;2022-11-06T06:22:26;7.13;;;4.90;;
14722;SDS011;7452;55.594;12.986;2022-11-06T06:24:53;8.80;;;5.03;;
14722;SDS011;7452;55.594;12.986;2022-11-06T06:27:21;12.87;;;5.33;;
14722;SDS011;7452;55.594;12.986;2022-11-06T06:29:51;7.97;;;5.10;;
14722;SDS011;7452;55.594;12.986;2022-11-06T06:32:18;9.83;;;4.90;;
14722;SDS011;7452;55.594;12.986;2022-11-06T06:34:46;8.07;;;4.73;;
14722;SDS011;7452;55.594;12.986;2022-11-06T06:37:13;11.20;;;5.23;;
14722;SDS011;7452;55.594;12.986;2022-11-06T06:39:41;8.37;;;5.10;;
14722;SDS011;7452;55.594;12.986;2022-11-06T06:42:08;7.90;;;5.10;;
14722;SDS011;7452;55.594;12.986;2022-11-06T06:44:36;7.37;;;5.00;;
14722;SDS011;7452;55.594;12.986;2022-11-06T06:47:05;9.13;;;5.10;;
14722;SDS011;7452;55.594;12.986;2022-11-06T06:49:32;9.47;;;5.93;;
14722;SDS011;7452;55.594;12.986;2022-11-06T06:52:00;12.60;;;5.40;;
14722;SDS011;7452;55.594;12.986;2022-11-06T06:54:29;12.90;;;4.87;;
14722;SDS011;7452;55.594;12.986;2022-11-06T06:56:57;7.70;;;5.13;;
14722;SDS011;7452;55.594;12.986;2022-11-06T06:59:26;10.83;;;5.20;;
14722;SDS011;7452;55.594;12.986;2022-11-06T07:01:55;12.43;;;6.80;;
14722;SDS011;7452;55.594;12.986;2022-11-06T07:04:24;9.20;;;5.70;;
14722;SDS011;7452;55.594;12.986;2022-11-06T07:06:52;10.87;;;6.53;;
14722;SDS011;7452;55.594;12.986;2022-11-06T07:09:23;12.67;;;7.50;;
14722;SDS011;7452;55.594;12.986;2022-11-06T07:11:51;11.23;;;6.77;;
14722;SDS011;7452;55.594;12.986;2022-11-06T07:14:18;13.60;;;6.30;;
14722;SDS011;7452;55.594;12.986;2022-11-06T07:16:46;10.47;;;6.70;;
14722;SDS011;7452;55.594;12.986;2022-11-06T07:19:13;10.53;;;6.57;;
14722;SDS011;7452;55.594;12.986;2022-11-06T07:21:43;11.23;;;6.63;;
14722;SDS011;7452;55.594;12.986;2022-11-06T07:24:10;11.43;;;6.90;;
14722;SDS011;7452;55.594;12.986;2022-11-06T07:26:42;11.83;;;6.47;;
14722;SDS011;7452;55.594;12.986;2022-11-06T07:29:09;10.03;;;5.97;;
14722;SDS011;7452;55.594;12.986;2022-11-06T07:31:37;12.87;;;6.93;;
14722;SDS011;7452;55.594;12.986;2022-11-06T07:34:06;14.87;;;6.60;;
14722;SDS011;7452;55.594;12.986;2022-11-06T07:36:36;12.23;;;6.30;;
14722;SDS011;7452;55.594;12.986;2022-11-06T07:39:05;12.00;;;6.37;;
14722;SDS011;7452;55.594;12.986;2022-11-06T07:41:33;12.93;;;7.17;;
14722;SDS011;7452;55.594;12.986;2022-11-06T07:44:00;10.43;;;6.17;;
14722;SDS011;7452;55.594;12.986;2022-11-06T07:46:28;10.13;;;6.97;;
14722;SDS011;7452;55.594;12.986;2022-11-06T07:48:55;11.83;;;7.10;;
14722;SDS011;7452;55.594;12.986;2022-11-06T07:51:22;11.03;;;6.40;;
14722;SDS011;7452;55.594;12.986;2022-11-06T07:53:49;12.33;;;6.33;;
14722;SDS011;7452;55.594;12.986;2022-11-06T07:56:18;11.90;;;6.43;;
14722;SDS011;7452;55.594;12.986;2022-11-06T07:58:45;15.70;;;6.77;;
14722;SDS011;7452;55.594;12.986;2022-11-06T08:01:13;11.23;;;5.93;;
14722;SDS011;7452;55.594;12.986;2022-11-06T08:03:41;11.17;;;7.03;;
14722;SDS011;7452;55.594;12.986;2022-11-06T08:06:08;9.23;;;6.40;;
14722;SDS011;7452;55.594;12.986;2022-11-06T08:08:36;11.17;;;6.27;;
14722;SDS011;7452;55.594;12.986;2022-11-06T08:11:05;11.03;;;7.27;;
14722;SDS011;7452;55.594;12.986;2022-11-06T08:13:34;13.47;;;7.03;;
14722;SDS011;7452;55.594;12.986;2022-11-06T08:16:03;16.90;;;7.10;;
14722;SDS011;7452;55.594;12.986;2022-11-06T08:18:30;13.37;;;6.67;;
14722;SDS011;7452;55.594;12.986;2022-11-06T08:20:57;14.07;;;7.47;;
14722;SDS011;7452;55.594;12.986;2022-11-06T08:23:25;13.57;;;7.47;;
14722;SDS011;7452;55.594;12.986;2022-11-06T08:25:53;12.07;;;8.00;;
14722;SDS011;7452;55.594;12.986;2022-11-06T08:28:21;11.73;;;8.60;;
14722;SDS011;7452;55.594;12.986;2022-11-06T08:30:51;14.90;;;9.23;;
14722;SDS011;7452;55.594;12.986;2022-11-06T08:33:19;13.53;;;9.13;;
14722;SDS011;7452;55.594;12.986;2022-11-06T08:35:47;14.10;;;9.47;;
14722;SDS011;7452;55.594;12.986;2022-11-06T08:38:17;13.30;;;9.27;;
14722;SDS011;7452;55.594;12.986;2022-11-06T08:40:44;15.17;;;9.90;;
14722;SDS011;7452;55.594;12.986;2022-11-06T08:43:11;14.57;;;9.53;;
14722;SDS011;7452;55.594;12.986;2022-11-06T08:45:40;14.53;;;9.90;;
14722;SDS011;7452;55.594;12.986;2022-11-06T08:48:09;14.47;;;10.40;;
14722;SDS011;7452;55.594;12.986;2022-11-06T08:50:38;13.93;;;10.63;;
14722;SDS011;7452;55.594;12.986;2022-11-06T08:53:07;18.13;;;10.47;;
14722;SDS011;7452;55.594;12.986;2022-11-06T08:55:35;15.47;;;10.37;;
14722;SDS011;7452;55.594;12.986;2022-11-06T08:58:04;16.00;;;9.90;;
14722;SDS011;7452;55.594;12.986;2022-11-06T09:00:34;13.43;;;9.93;;
14722;SDS011;7452;55.594;12.986;2022-11-06T09:03:03;12.43;;;9.90;;
14722;SDS011;7452;55.594;12.986;2022-11-06T09:05:33;13.13;;;9.57;;
14722;SDS011;7452;55.594;12.986;2022-11-06T09:08:00;17.53;;;10.23;;
14722;SDS011;7452;55.594;12.986;2022-11-06T09:10:28;14.03;;;10.23;;
14722;SDS011;7452;55.594;12.986;2022-11-06T09:12:56;15.47;;;9.17;;
14722;SDS011;7452;55.594;12.986;2022-11-06T09:15:24;17.93;;;10.23;;
14722;SDS011;7452;55.594;12.986;2022-11-06T09:17:51;13.27;;;9.20;;
14722;SDS011;7452;55.594;12.986;2022-11-06T09:20:19;12.10;;;8.37;;
14722;SDS011;7452;55.594;12.986;2022-11-06T09:22:50;11.33;;;8.67;;
14722;SDS011;7452;55.594;12.986;2022-11-06T09:25:18;12.77;;;8.47;;
14722;SDS011;7452;55.594;12.986;2022-11-06T09:27:46;15.30;;;9.03;;
14722;SDS011;7452;55.594;12.986;2022-11-06T09:30:16;12.27;;;7.87;;
14722;SDS011;7452;55.594;12.986;2022-11-06T09:32:44;11.53;;;7.60;;
14722;SDS011;7452;55.594;12.986;2022-11-06T09:35:12;11.97;;;7.80;;
14722;SDS011;7452;55.594;12.986;2022-11-06T09:37:39;10.20;;;7.60;;
14722;SDS011;7452;55.594;12.986;2022-11-06T09:40:08;10.83;;;7.33;;
14722;SDS011;7452;55.594;12.986;2022-11-06T09:42:46;13.23;;;8.67;;
14722;SDS011;7452;55.594;12.986;2022-11-06T09:45:23;12.10;;;8.20;;
14722;SDS011;7452;55.594;12.986;2022-11-06T09:47:53;12.23;;;8.50;;
14722;SDS011;7452;55.594;12.986;2022-11-06T09:50:29;12.13;;;7.23;;
14722;SDS011;7452;55.594;12.986;2022-11-06T09:53:02;10.30;;;6.93;;
14722;SDS011;7452;55.594;12.986;2022-11-06T09:55:38;9.27;;;7.17;;
14722;SDS011;7452;55.594;12.986;2022-11-06T09:58:10;8.90;;;6.40;;
14722;SDS011;7452;55.594;12.986;2022-11-06T10:00:40;10.80;;;6.40;;
14722;SDS011;7452;55.594;12.986;2022-11-06T10:03:11;13.20;;;6.47;;
14722;SDS011;7452;55.594;12.986;2022-11-06T10:05:41;9.20;;;6.77;;
14722;SDS011;7452;55.594;12.986;2022-11-06T10:08:12;11.60;;;7.03;;
14722;SDS011;7452;55.594;12.986;2022-11-06T10:10:45;10.27;;;7.60;;
14722;SDS011;7452;55.594;12.986;2022-11-06T10:13:24;9.20;;;7.00;;
14722;SDS011;7452;55.594;12.986;2022-11-06T10:16:03;8.13;;;7.13;;
14722;SDS011;7452;55.594;12.986;2022-11-06T10:18:42;12.23;;;7.03;;
14722;SDS011;7452;55.594;12.986;2022-11-06T10:21:18;10.00;;;7.50;;
14722;SDS011;7452;55.594;12.986;2022-11-06T10:23:49;11.43;;;8.10;;
14722;SDS011;7452;55.594;12.986;2022-11-06T10:26:22;12.47;;;8.73;;
14722;SDS011;7452;55.594;12.986;2022-11-06T10:29:02;13.27;;;9.43;;
14722;SDS011;7452;55.594;12.986;2022-11-06T10:32:02;12.40;;;8.80;;
14722;SDS011;7452;55.594;12.986;2022-11-06T10:34:43;14.20;;;9.30;;
14722;SDS011;7452;55.594;12.986;2022-11-06T10:37:15;11.37;;;9.20;;
14722;SDS011;7452;55.594;12.986;2022-11-06T10:39:47;11.73;;;9.13;;
14722;SDS011;7452;55.594;12.986;2022-11-06T10:42:18;11.13;;;9.17;;
14722;SDS011;7452;55.594;12.986;2022-11-06T10:44:47;14.30;;;9.80;;
14722;SDS011;7452;55.594;12.986;2022-11-06T10:47:18;16.77;;;9.53;;
14722;SDS011;7452;55.594;12.986;2022-11-06T10:49:47;14.13;;;9.47;;
14722;SDS011;7452;55.594;12.986;2022-11-06T10:52:28;13.17;;;9.93;;
14722;SDS011;7452;55.594;12.986;2022-11-06T10:58:07;12.73;;;9.17;;
14722;SDS011;7452;55.594;12.986;2022-11-06T11:00:37;14.80;;;9.10;;
14722;SDS011;7452;55.594;12.986;2022-11-06T11:03:05;11.30;;;8.50;;
14722;SDS011;7452;55.594;12.986;2022-11-06T11:05:42;16.03;;;8.83;;
14722;SDS011;7452;55.594;12.986;2022-11-06T11:10:59;16.63;;;8.97;;
14722;SDS011;7452;55.594;12.986;2022-11-06T11:13:28;14.17;;;8.53;;
14722;SDS011;7452;55.594;12.986;2022-11-06T11:15:55;10.67;;;8.43;;
14722;SDS011;7452;55.594;12.986;2022-11-06T11:18:23;12.70;;;9.00;;
14722;SDS011;7452;55.594;12.986;2022-11-06T11:21:03;15.87;;;9.70;;
14722;SDS011;7452;55.594;12.986;2022-11-06T11:23:32;11.77;;;9.20;;
14722;SDS011;7452;55.594;12.986;2022-11-06T11:26:12;15.23;;;9.27;;
14722;SDS011;7452;55.594;12.986;2022-11-06T11:28:57;12.60;;;8.50;;
14722;SDS011;7452;55.594;12.986;2022-11-06T11:31:27;13.87;;;8.37;;
14722;SDS011;7452;55.594;12.986;2022-11-06T11:33:56;14.07;;;8.93;;
14722;SDS011;7452;55.594;12.986;2022-11-06T11:36:25;12.43;;;9.40;;
14722;SDS011;7452;55.594;12.986;2022-11-06T11:39:12;13.13;;;7.83;;
14722;SDS011;7452;55.594;12.986;2022-11-06T11:41:41;13.33;;;7.57;;
14722;SDS011;7452;55.594;12.986;2022-11-06T11:44:18;11.43;;;8.37;;
14722;SDS011;7452;55.594;12.986;2022-11-06T11:46:47;11.90;;;8.43;;
14722;SDS011;7452;55.594;12.986;2022-11-06T11:49:25;14.13;;;7.57;;
14722;SDS011;7452;55.594;12.986;2022-11-06T11:51:53;10.83;;;7.97;;
14722;SDS011;7452;55.594;12.986;2022-11-06T11:54:22;11.57;;;7.87;;
14722;SDS011;7452;55.594;12.986;2022-11-06T11:56:52;9.67;;;7.53;;
14722;SDS011;7452;55.594;12.986;2022-11-06T11:59:24;9.30;;;7.00;;
14722;SDS011;7452;55.594;12.986;2022-11-06T12:01:55;10.10;;;7.43;;
14722;SDS011;7452;55.594;12.986;2022-11-06T12:04:26;10.53;;;8.90;;
14722;SDS011;7452;55.594;12.986;2022-11-06T12:06:57;8.97;;;7.30;;
14722;SDS011;7452;55.594;12.986;2022-11-06T12:09:26;9.33;;;6.43;;
14722;SDS011;7452;55.594;12.986;2022-11-06T12:11:55;10.03;;;6.10;;
14722;SDS011;7452;55.594;12.986;2022-11-06T12:14:34;9.07;;;6.80;;
14722;SDS011;7452;55.594;12.986;2022-11-06T12:17:12;9.43;;;6.80;;
14722;SDS011;7452;55.594;12.986;2022-11-06T12:19:45;8.70;;;6.97;;
14722;SDS011;7452;55.594;12.986;2022-11-06T12:22:16;11.60;;;7.53;;
14722;SDS011;7452;55.594;12.986;2022-11-06T12:24:50;11.90;;;8.43;;
14722;SDS011;7452;55.594;12.986;2022-11-06T12:27:20;14.43;;;7.83;;
14722;SDS011;7452;55.594;12.986;2022-11-06T12:30:00;10.03;;;7.13;;
14722;SDS011;7452;55.594;12.986;2022-11-06T12:32:38;12.40;;;8.90;;
14722;SDS011;7452;55.594;12.986;2022-11-06T12:35:14;15.07;;;10.30;;
14722;SDS011;7452;55.594;12.986;2022-11-06T12:37:51;18.33;;;10.33;;
14722;SDS011;7452;55.594;12.986;2022-11-06T12:40:24;14.43;;;9.33;;
14722;SDS011;7452;55.594;12.986;2022-11-06T12:42:58;13.33;;;9.97;;
14722;SDS011;7452;55.594;12.986;2022-11-06T12:45:41;16.07;;;10.03;;
14722;SDS011;7452;55.594;12.986;2022-11-06T12:48:20;14.97;;;9.90;;
14722;SDS011;7452;55.594;12.986;2022-11-06T12:50:57;13.07;;;8.97;;
14722;SDS011;7452;55.594;12.986;2022-11-06T12:53:33;17.30;;;10.17;;
14722;SDS011;7452;55.594;12.986;2022-11-06T12:56:10;14.07;;;9.53;;
14722;SDS011;7452;55.594;12.986;2022-11-06T12:58:50;12.93;;;9.33;;
14722;SDS011;7452;55.594;12.986;2022-11-06T13:01:30;13.57;;;9.17;;
14722;SDS011;7452;55.594;12.986;2022-11-06T13:10:08;13.13;;;9.17;;
14722;SDS011;7452;55.594;12.986;2022-11-06T13:12:47;12.70;;;8.70;;
14722;SDS011;7452;55.594;12.986;2022-11-06T13:15:26;11.90;;;9.63;;
14722;SDS011;7452;55.594;12.986;2022-11-06T13:18:00;12.03;;;8.93;;
14722;SDS011;7452;55.594;12.986;2022-11-06T13:20:37;12.80;;;8.97;;
14722;SDS011;7452;55.594;12.986;2022-11-06T13:23:12;16.83;;;9.50;;
14722;SDS011;7452;55.594;12.986;2022-11-06T13:25:46;13.57;;;9.17;;
14722;SDS011;7452;55.594;12.986;2022-11-06T13:28:21;12.67;;;9.70;;
14722;SDS011;7452;55.594;12.986;2022-11-06T13:30:53;15.17;;;10.33;;
14722;SDS011;7452;55.594;12.986;2022-11-06T13:33:25;14.00;;;10.10;;
14722;SDS011;7452;55.594;12.986;2022-11-06T13:35:55;17.27;;;10.23;;
14722;SDS011;7452;55.594;12.986;2022-11-06T13:38:26;13.57;;;8.63;;
14722;SDS011;7452;55.594;12.986;2022-11-06T13:40:55;12.67;;;8.70;;
14722;SDS011;7452;55.594;12.986;2022-11-06T13:43:31;16.50;;;9.10;;
14722;SDS011;7452;55.594;12.986;2022-11-06T13:46:04;10.93;;;8.10;;
14722;SDS011;7452;55.594;12.986;2022-11-06T13:48:42;10.20;;;7.67;;
14722;SDS011;7452;55.594;12.986;2022-11-06T13:51:20;12.40;;;8.57;;
14722;SDS011;7452;55.594;12.986;2022-11-06T13:53:58;12.30;;;8.57;;
14722;SDS011;7452;55.594;12.986;2022-11-06T13:56:51;10.40;;;8.03;;
14722;SDS011;7452;55.594;12.986;2022-11-06T13:59:52;13.27;;;8.90;;
14722;SDS011;7452;55.594;12.986;2022-11-06T14:02:42;11.33;;;8.00;;
14722;SDS011;7452;55.594;12.986;2022-11-06T14:08:18;13.73;;;7.93;;
14722;SDS011;7452;55.594;12.986;2022-11-06T14:10:53;11.70;;;7.37;;
14722;SDS011;7452;55.594;12.986;2022-11-06T14:13:24;12.53;;;7.63;;
14722;SDS011;7452;55.594;12.986;2022-11-06T14:15:57;9.20;;;7.53;;
14722;SDS011;7452;55.594;12.986;2022-11-06T14:18:30;11.67;;;7.70;;
14722;SDS011;7452;55.594;12.986;2022-11-06T14:24:21;11.03;;;7.50;;
14722;SDS011;7452;55.594;12.986;2022-11-06T14:26:55;7.73;;;7.03;;
14722;SDS011;7452;55.594;12.986;2022-11-06T14:32:32;10.40;;;8.63;;
14722;SDS011;7452;55.594;12.986;2022-11-06T14:38:17;12.10;;;8.73;;
14722;SDS011;7452;55.594;12.986;2022-11-06T14:41:44;11.53;;;8.90;;
14722;SDS011;7452;55.594;12.986;2022-11-06T14:44:22;10.77;;;8.40;;
14722;SDS011;7452;55.594;12.986;2022-11-06T14:47:22;12.80;;;8.60;;
14722;SDS011;7452;55.594;12.986;2022-11-06T14:50:00;12.17;;;8.90;;
14722;SDS011;7452;55.594;12.986;2022-11-06T14:52:38;13.03;;;9.00;;
14722;SDS011;7452;55.594;12.986;2022-11-06T14:55:13;18.23;;;9.53;;
14722;SDS011;7452;55.594;12.986;2022-11-06T14:57:56;10.93;;;8.13;;
14722;SDS011;7452;55.594;12.986;2022-11-06T15:00:37;12.90;;;7.60;;
14722;SDS011;7452;55.594;12.986;2022-11-06T15:03:17;11.17;;;7.87;;
14722;SDS011;7452;55.594;12.986;2022-11-06T15:05:47;12.40;;;8.07;;
14722;SDS011;7452;55.594;12.986;2022-11-06T15:17:26;13.17;;;7.40;;
14722;SDS011;7452;55.594;12.986;2022-11-06T15:22:51;11.57;;;6.70;;
14722;SDS011;7452;55.594;12.986;2022-11-06T15:25:27;8.17;;;6.53;;
14722;SDS011;7452;55.594;12.986;2022-11-06T15:27:55;10.87;;;6.87;;
14722;SDS011;7452;55.594;12.986;2022-11-06T15:30:29;16.53;;;7.13;;
14722;SDS011;7452;55.594;12.986;2022-11-06T15:33:03;12.63;;;6.27;;
14722;SDS011;7452;55.594;12.986;2022-11-06T15:35:38;14.67;;;6.80;;
14722;SDS011;7452;55.594;12.986;2022-11-06T15:38:06;12.43;;;5.73;;
14722;SDS011;7452;55.594;12.986;2022-11-06T15:40:38;10.27;;;5.77;;
14722;SDS011;7452;55.594;12.986;2022-11-06T15:43:08;8.47;;;5.33;;
14722;SDS011;7452;55.594;12.986;2022-11-06T15:45:47;10.67;;;4.87;;
14722;SDS011;7452;55.594;12.986;2022-11-06T15:48:28;10.00;;;5.27;;